Time;durP1;ratioP1;P1;durP2;ratioP2;P2;SDS_P1;SDS_P2;PMS_P1;PMS_P2;Temp;Humidity;BMP_temperature;BMP_pressure;BME280_temperature;BME280_humidity;BME280_pressure;Samples;Min_cycle;Max_cycle;Signal;HPM_P1;HPM_P2
2021/10/17 00:00:24;;;;;;;41.03;21.45;;;10.60;99.90;;;;;;5031115;28;20029;-88
2021/10/17 00:02:51;;;;;;;37.33;22.38;;;10.60;99.90;;;;;;5030903;28;20058;-89
2021/10/17 00:05:19;;;;;;;28.40;15.00;;;10.60;99.90;;;;;;5032215;28;20044;-89
2021/10/17 00:07:45;;;;;;;46.00;23.35;;;10.70;99.90;;;;;;5036548;28;20105;-89
2021/10/17 00:10:14;;;;;;;45.80;22.95;;;10.70;99.90;;;;;;5032668;28;20444;-89
2021/10/17 00:12:41;;;;;;;41.75;22.73;;;10.60;99.90;;;;;;5013886;28;20022;-88
2021/10/17 00:15:10;;;;;;;41.05;21.92;;;10.60;99.90;;;;;;5030483;28;20065;-89
2021/10/17 00:17:36;;;;;;;41.28;22.23;;;10.60;99.90;;;;;;5030267;28;20045;-88
2021/10/17 00:20:04;;;;;;;45.80;23.83;;;10.60;99.90;;;;;;5030349;28;20113;-89
2021/10/17 00:22:30;;;;;;;54.22;27.45;;;10.60;99.90;;;;;;5030102;28;20030;-89
2021/10/17 00:24:56;;;;;;;46.80;23.88;;;10.60;99.90;;;;;;5030274;28;20022;-89
2021/10/17 00:27:21;;;;;;;44.42;23.40;;;10.60;99.90;;;;;;5030081;28;20034;-89
2021/10/17 00:29:47;;;;;;;42.45;23.65;;;10.60;99.90;;;;;;5030192;28;20287;-90
2021/10/17 00:32:13;;;;;;;50.60;26.10;;;10.60;99.90;;;;;;5029511;28;20080;-90
2021/10/17 00:34:39;;;;;;;35.15;18.30;;;10.60;99.90;;;;;;5029675;28;20554;-90
2021/10/17 00:37:08;;;;;;;32.53;18.55;;;10.60;99.90;;;;;;5029751;28;20125;-90
2021/10/17 00:39:35;;;;;;;45.72;24.85;;;10.60;99.90;;;;;;5029991;28;20022;-89
2021/10/17 00:42:04;;;;;;;37.38;20.17;;;10.60;99.90;;;;;;5030003;28;20025;-90
2021/10/17 00:44:31;;;;;;;47.85;25.20;;;10.60;99.90;;;;;;5030142;28;20098;-88
2021/10/17 00:46:57;;;;;;;32.33;17.40;;;10.60;99.90;;;;;;5029479;28;20032;-90
2021/10/17 00:49:22;;;;;;;32.53;18.45;;;10.60;99.90;;;;;;5030044;28;20109;-90
2021/10/17 00:51:48;;;;;;;34.83;20.23;;;10.70;99.90;;;;;;5029861;28;20124;-88
2021/10/17 00:54:15;;;;;;;35.65;21.02;;;10.70;99.90;;;;;;5029482;28;20029;-89
2021/10/17 00:56:42;;;;;;;45.13;22.85;;;10.70;99.90;;;;;;5029681;28;20069;-89
2021/10/17 00:59:09;;;;;;;43.80;24.40;;;10.70;99.90;;;;;;5029509;28;20084;-88
2021/10/17 01:01:35;;;;;;;32.67;17.05;;;10.80;99.90;;;;;;5029692;28;20084;-89
2021/10/17 01:04:01;;;;;;;35.90;20.23;;;10.80;99.90;;;;;;5029560;28;20030;-90
2021/10/17 01:06:28;;;;;;;48.60;26.05;;;10.70;99.90;;;;;;5029743;28;20376;-90
2021/10/17 01:08:54;;;;;;;41.28;20.63;;;10.70;99.90;;;;;;5029392;28;20022;-89
2021/10/17 01:11:20;;;;;;;46.25;23.88;;;10.80;99.90;;;;;;5029331;28;20055;-89
2021/10/17 01:13:46;;;;;;;40.40;21.20;;;10.80;99.90;;;;;;5029569;28;20037;-89
2021/10/17 01:16:12;;;;;;;37.08;21.77;;;10.80;99.90;;;;;;5012775;28;20038;-89
2021/10/17 01:18:38;;;;;;;23.75;13.93;;;10.80;99.90;;;;;;5029489;28;20040;-89
2021/10/17 01:21:03;;;;;;;34.15;18.23;;;10.80;99.90;;;;;;5027951;28;20057;-89
2021/10/17 01:23:29;;;;;;;42.88;24.25;;;10.70;99.90;;;;;;5029545;28;20476;-89
2021/10/17 01:25:55;;;;;;;44.63;25.67;;;10.80;99.90;;;;;;5029004;28;20017;-91
2021/10/17 01:28:22;;;;;;;47.38;26.90;;;10.80;99.90;;;;;;5029208;28;20475;-89
2021/10/17 01:30:48;;;;;;;49.17;29.00;;;10.80;99.90;;;;;;5012452;28;20030;-88
2021/10/17 01:33:14;;;;;;;53.55;27.30;;;10.80;99.90;;;;;;5029414;28;20029;-89
2021/10/17 01:35:40;;;;;;;37.08;20.45;;;10.90;99.90;;;;;;5029395;28;20383;-90
2021/10/17 01:38:07;;;;;;;44.22;24.92;;;10.90;99.90;;;;;;5029311;28;20395;-89
2021/10/17 01:40:32;;;;;;;47.17;24.63;;;10.90;99.90;;;;;;5029278;28;20026;-90
2021/10/17 01:42:58;;;;;;;48.00;24.77;;;10.90;99.90;;;;;;5030167;28;20573;-90
2021/10/17 01:45:24;;;;;;;46.88;24.50;;;10.90;99.90;;;;;;5029643;28;20109;-89
2021/10/17 01:47:52;;;;;;;47.67;25.75;;;10.90;99.90;;;;;;5013212;28;20112;-89
2021/10/17 01:50:19;;;;;;;43.38;23.05;;;11.00;99.90;;;;;;5029750;28;20030;-89
2021/10/17 01:52:46;;;;;;;37.10;20.27;;;11.00;99.90;;;;;;5012707;28;20033;-90
2021/10/17 01:55:13;;;;;;;34.05;20.55;;;11.00;99.90;;;;;;5031803;28;20030;-90
2021/10/17 01:57:39;;;;;;;38.70;20.08;;;11.00;99.90;;;;;;5032127;28;20034;-90
2021/10/17 02:00:07;;;;;;;32.33;18.73;;;11.00;99.90;;;;;;5017123;28;20048;-89
2021/10/17 02:02:33;;;;;;;40.20;20.48;;;11.10;99.90;;;;;;5029967;28;20029;-89
2021/10/17 02:04:59;;;;;;;34.58;20.15;;;11.10;99.90;;;;;;5029210;28;20086;-90
2021/10/17 02:07:25;;;;;;;38.50;20.92;;;11.10;99.90;;;;;;5029097;28;20048;-89
2021/10/17 02:09:50;;;;;;;39.17;20.67;;;11.10;99.90;;;;;;5012922;28;20040;-89
2021/10/17 02:12:21;;;;;;;27.80;17.63;;;11.10;99.90;;;;;;5028881;28;20105;-90
2021/10/17 02:14:47;;;;;;;26.15;14.55;;;11.10;99.90;;;;;;5028706;28;20061;-89
2021/10/17 02:17:13;;;;;;;30.17;18.02;;;11.10;99.90;;;;;;5028787;28;20038;-89
2021/10/17 02:19:39;;;;;;;33.95;18.60;;;11.10;99.90;;;;;;5028620;28;20033;-89
2021/10/17 02:22:04;;;;;;;32.63;19.73;;;11.20;99.90;;;;;;5029920;28;20033;-89
2021/10/17 02:24:30;;;;;;;30.60;18.38;;;11.10;99.90;;;;;;5032234;28;20037;-89
2021/10/17 02:26:56;;;;;;;23.42;14.25;;;11.20;99.90;;;;;;5015779;28;20033;-88
2021/10/17 02:29:21;;;;;;;29.77;17.10;;;11.20;99.90;;;;;;5031901;28;20022;-87
2021/10/17 02:31:47;;;;;;;25.10;15.63;;;11.10;99.90;;;;;;5032174;28;20053;-89
2021/10/17 02:34:13;;;;;;;30.90;16.92;;;11.20;99.90;;;;;;5032167;28;20462;-89
2021/10/17 02:36:38;;;;;;;32.42;17.98;;;11.20;99.90;;;;;;5031941;28;20400;-89
2021/10/17 02:39:04;;;;;;;32.00;17.35;;;11.20;99.90;;;;;;5031917;28;20426;-90
2021/10/17 02:41:30;;;;;;;21.52;13.52;;;11.20;99.90;;;;;;5015162;28;20030;-89
2021/10/17 02:43:55;;;;;;;24.73;14.23;;;11.20;99.90;;;;;;5031564;28;20552;-89
2021/10/17 02:46:21;;;;;;;27.38;15.25;;;11.20;99.90;;;;;;5031915;28;20112;-89
2021/10/17 02:48:46;;;;;;;26.58;16.95;;;11.20;99.90;;;;;;5031773;28;20388;-90
2021/10/17 02:51:12;;;;;;;26.92;17.10;;;11.20;99.90;;;;;;5031426;28;20026;-89
2021/10/17 02:53:38;;;;;;;30.73;16.75;;;11.20;99.90;;;;;;5031672;28;20030;-89
2021/10/17 02:56:04;;;;;;;31.13;16.70;;;11.20;99.90;;;;;;5031746;28;20029;-90
2021/10/17 02:58:30;;;;;;;24.80;14.73;;;11.20;99.90;;;;;;5015213;28;20034;-90
2021/10/17 03:00:55;;;;;;;29.27;16.00;;;11.20;99.90;;;;;;5031724;28;20113;-90
2021/10/17 03:03:21;;;;;;;24.85;14.55;;;11.20;99.90;;;;;;5031549;28;20493;-89
2021/10/17 03:05:47;;;;;;;24.15;16.50;;;11.20;99.90;;;;;;5031714;28;20084;-89
2021/10/17 03:08:12;;;;;;;22.85;13.98;;;11.20;99.90;;;;;;5031286;28;20025;-89
2021/10/17 03:10:38;;;;;;;27.63;15.10;;;11.20;99.90;;;;;;5031221;28;20026;-89
2021/10/17 03:13:04;;;;;;;27.52;15.27;;;11.20;99.90;;;;;;5031325;28;20088;-88
2021/10/17 03:15:30;;;;;;;31.83;16.60;;;11.20;99.90;;;;;;5014983;28;20116;-90
2021/10/17 03:17:55;;;;;;;23.75;14.63;;;11.20;99.90;;;;;;5031177;28;20030;-89
2021/10/17 03:20:22;;;;;;;21.45;14.05;;;11.20;99.90;;;;;;5031805;28;20026;-89
2021/10/17 03:22:48;;;;;;;25.05;14.85;;;11.20;99.90;;;;;;5031513;28;20174;-89
2021/10/17 03:25:14;;;;;;;22.90;14.18;;;11.20;99.90;;;;;;5030984;28;20030;-89
2021/10/17 03:27:39;;;;;;;23.27;14.20;;;11.20;99.90;;;;;;5031195;28;20351;-89
2021/10/17 03:30:09;;;;;;;27.25;15.13;;;11.30;99.90;;;;;;5030949;28;20486;-90
2021/10/17 03:32:34;;;;;;;27.02;14.45;;;11.30;99.90;;;;;;5013647;28;20080;-89
2021/10/17 03:35:03;;;;;;;24.65;13.40;;;11.30;99.90;;;;;;5030976;28;20054;-89
2021/10/17 03:37:33;;;;;;;19.98;12.73;;;11.30;99.90;;;;;;5030745;28;20046;-89
2021/10/17 03:39:59;;;;;;;25.10;13.43;;;11.30;99.90;;;;;;5031514;28;20030;-90
2021/10/17 03:42:25;;;;;;;26.17;14.07;;;11.30;99.90;;;;;;5039170;28;20049;-89
2021/10/17 03:44:51;;;;;;;20.50;12.68;;;11.30;99.90;;;;;;5044858;28;20025;-88
2021/10/17 03:47:17;;;;;;;21.48;13.40;;;11.30;99.90;;;;;;5027554;28;20030;-89
2021/10/17 03:49:43;;;;;;;22.55;13.88;;;11.30;99.90;;;;;;5044550;28;20018;-88
2021/10/17 03:52:08;;;;;;;24.73;12.23;;;11.30;99.90;;;;;;5041788;28;20026;-89
2021/10/17 03:54:34;;;;;;;21.58;13.32;;;11.30;99.90;;;;;;5031690;28;20022;-90
2021/10/17 03:57:00;;;;;;;20.85;12.60;;;11.30;99.90;;;;;;5031268;28;20033;-90
2021/10/17 03:59:26;;;;;;;18.65;12.82;;;11.30;99.90;;;;;;5030911;28;20022;-89
2021/10/17 04:01:51;;;;;;;21.65;12.15;;;11.30;99.90;;;;;;5031007;28;20053;-89
2021/10/17 04:04:17;;;;;;;20.70;11.88;;;11.30;99.90;;;;;;5014980;28;20645;-90
2021/10/17 04:06:43;;;;;;;24.15;14.27;;;11.30;99.90;;;;;;5030864;28;20037;-88
2021/10/17 04:09:09;;;;;;;22.92;13.98;;;11.30;99.90;;;;;;5030249;28;20026;-89
2021/10/17 04:11:35;;;;;;;19.52;13.02;;;11.30;99.90;;;;;;5030120;28;20503;-87
2021/10/17 04:14:00;;;;;;;23.90;13.23;;;11.30;99.90;;;;;;5033546;28;20050;-88
2021/10/17 04:16:26;;;;;;;23.67;13.88;;;11.30;99.90;;;;;;5018063;28;20038;-89
2021/10/17 04:18:52;;;;;;;22.40;13.25;;;11.30;99.90;;;;;;5037362;28;20030;-88
2021/10/17 04:21:18;;;;;;;24.00;12.90;;;11.30;99.90;;;;;;5021176;28;20030;-90
2021/10/17 04:23:44;;;;;;;21.83;13.45;;;11.30;99.90;;;;;;5039949;28;20094;-90
2021/10/17 04:26:10;;;;;;;23.00;14.68;;;11.30;99.90;;;;;;5041365;28;20022;-89
2021/10/17 04:28:35;;;;;;;25.85;15.10;;;11.40;99.90;;;;;;5037855;28;20026;-89
2021/10/17 04:31:01;;;;;;;20.60;12.73;;;11.40;99.90;;;;;;5041138;28;20479;-90
2021/10/17 04:33:27;;;;;;;22.17;13.07;;;11.40;99.90;;;;;;5040520;28;20022;-89
2021/10/17 04:35:52;;;;;;;25.13;14.93;;;11.40;99.90;;;;;;5041392;28;20093;-88
2021/10/17 04:38:18;;;;;;;19.23;13.48;;;11.40;99.90;;;;;;5017192;28;20030;-88
2021/10/17 04:40:44;;;;;;;22.23;13.57;;;11.40;99.90;;;;;;5034864;28;20022;-88
2021/10/17 04:43:12;;;;;;;24.20;14.52;;;11.50;99.90;;;;;;5016679;28;20163;-88
2021/10/17 04:45:37;;;;;;;25.35;14.00;;;11.50;99.90;;;;;;5031695;28;20047;-88
2021/10/17 04:48:05;;;;;;;20.30;12.80;;;11.50;99.90;;;;;;5015574;28;20509;-88
2021/10/17 04:50:30;;;;;;;21.17;13.70;;;11.50;99.90;;;;;;5032187;28;20018;-89
2021/10/17 04:52:56;;;;;;;25.98;13.75;;;11.50;99.90;;;;;;5031189;28;20029;-89
2021/10/17 04:55:22;;;;;;;22.33;13.93;;;11.50;99.90;;;;;;5031930;28;20030;-88
2021/10/17 04:57:48;;;;;;;21.15;12.32;;;11.50;99.90;;;;;;5031116;28;20723;-89
2021/10/17 05:00:14;;;;;;;24.95;12.80;;;11.50;99.90;;;;;;5030489;28;20096;-89
2021/10/17 05:02:39;;;;;;;21.23;14.23;;;11.50;99.90;;;;;;5014163;28;20034;-89
2021/10/17 05:05:07;;;;;;;21.52;13.95;;;11.50;99.90;;;;;;5014230;28;20439;-89
2021/10/17 05:07:33;;;;;;;22.77;14.57;;;11.50;99.90;;;;;;5030429;28;20025;-89
2021/10/17 05:09:58;;;;;;;26.38;13.00;;;11.60;99.90;;;;;;5030214;28;20065;-89
2021/10/17 05:12:25;;;;;;;18.80;10.98;;;11.60;99.90;;;;;;5029858;28;20030;-89
2021/10/17 05:14:52;;;;;;;16.80;11.23;;;11.50;99.90;;;;;;5030037;28;20057;-89
2021/10/17 05:17:17;;;;;;;18.45;11.95;;;11.50;99.90;;;;;;5029614;28;20483;-89
2021/10/17 05:19:43;;;;;;;17.55;11.82;;;11.60;99.90;;;;;;5029606;28;20030;-89
2021/10/17 05:22:09;;;;;;;18.73;11.57;;;11.60;99.90;;;;;;5012643;28;20045;-89
2021/10/17 05:24:34;;;;;;;18.35;11.82;;;11.50;99.90;;;;;;5029302;28;20034;-88
2021/10/17 05:27:00;;;;;;;15.48;10.27;;;11.50;99.90;;;;;;5029374;28;20065;-89
2021/10/17 05:29:26;;;;;;;17.33;11.10;;;11.50;99.90;;;;;;5029165;28;20030;-88
2021/10/17 05:31:52;;;;;;;17.40;11.55;;;11.50;99.90;;;;;;5029337;28;20026;-88
2021/10/17 05:34:17;;;;;;;20.23;11.60;;;11.50;99.90;;;;;;5029392;28;20555;-88
2021/10/17 05:36:43;;;;;;;19.13;12.30;;;11.50;99.90;;;;;;5029024;28;20040;-88
2021/10/17 05:39:10;;;;;;;19.98;12.43;;;11.40;99.90;;;;;;5013030;28;20038;-87
2021/10/17 05:41:36;;;;;;;23.90;12.00;;;11.40;99.90;;;;;;5031011;28;20479;-87
2021/10/17 05:44:02;;;;;;;17.40;11.05;;;11.40;99.90;;;;;;5029679;28;20118;-87
2021/10/17 05:46:28;;;;;;;16.38;11.75;;;11.40;99.90;;;;;;5029001;28;20033;-88
2021/10/17 05:48:53;;;;;;;14.52;8.75;;;11.40;99.90;;;;;;5029029;28;20030;-88
2021/10/17 05:51:19;;;;;;;12.45;7.47;;;11.40;99.90;;;;;;5012419;28;20030;-88
2021/10/17 05:53:45;;;;;;;11.35;7.80;;;11.30;99.90;;;;;;5012877;28;20036;-89
2021/10/17 05:56:10;;;;;;;14.75;8.57;;;11.30;99.90;;;;;;5030902;28;20045;-88
2021/10/17 05:58:36;;;;;;;10.65;7.93;;;11.30;99.90;;;;;;5016692;28;20444;-89
2021/10/17 06:01:02;;;;;;;11.52;6.88;;;11.30;99.90;;;;;;5016173;28;20029;-87
2021/10/17 06:03:27;;;;;;;11.90;7.70;;;11.30;99.90;;;;;;5016412;28;20022;-88
2021/10/17 06:06:00;;;;;;;9.52;6.57;;;11.30;99.90;;;;;;5016100;28;20034;-89
2021/10/17 06:08:25;;;;;;;9.82;6.72;;;11.30;99.90;;;;;;5016244;28;20071;-88
2021/10/17 06:10:52;;;;;;;8.60;5.50;;;11.30;99.90;;;;;;5016116;28;20026;-88
2021/10/17 06:13:18;;;;;;;7.15;4.35;;;11.20;99.90;;;;;;5032433;28;20033;-89
2021/10/17 06:15:44;;;;;;;9.25;4.68;;;11.20;99.90;;;;;;5015567;28;20050;-88
2021/10/17 06:18:09;;;;;;;5.50;4.18;;;11.20;99.90;;;;;;5015828;28;20052;-89
2021/10/17 06:20:35;;;;;;;5.63;4.10;;;11.20;99.90;;;;;;5015839;28;20353;-89
2021/10/17 06:23:00;;;;;;;5.95;3.60;;;11.10;99.90;;;;;;5016581;28;20026;-88
2021/10/17 06:25:26;;;;;;;6.65;3.97;;;11.20;99.90;;;;;;5016470;28;20030;-89
2021/10/17 06:27:52;;;;;;;6.00;3.75;;;11.10;99.90;;;;;;5016767;28;20113;-90
2021/10/17 06:30:17;;;;;;;4.32;3.60;;;11.10;99.90;;;;;;5032864;28;20483;-89
2021/10/17 06:32:43;;;;;;;8.52;3.90;;;11.10;99.90;;;;;;5016243;28;20534;-89
2021/10/17 06:35:09;;;;;;;5.35;3.70;;;11.10;99.90;;;;;;5017321;28;20463;-89
2021/10/17 06:37:35;;;;;;;4.97;3.78;;;11.10;99.90;;;;;;5017172;28;20034;-88
2021/10/17 06:40:00;;;;;;;5.45;4.07;;;11.10;99.90;;;;;;5016270;28;20038;-88
2021/10/17 06:42:27;;;;;;;7.53;4.28;;;11.10;99.90;;;;;;5015954;28;20032;-89
2021/10/17 06:44:53;;;;;;;4.97;3.92;;;11.10;99.90;;;;;;5033406;28;20034;-89
2021/10/17 06:47:18;;;;;;;4.80;3.58;;;11.10;99.90;;;;;;5015310;28;20034;-89
2021/10/17 06:49:44;;;;;;;5.05;3.97;;;11.10;99.90;;;;;;5015738;28;20018;-89
2021/10/17 06:52:10;;;;;;;7.00;4.40;;;11.10;99.90;;;;;;5015793;28;20033;-87
2021/10/17 06:54:35;;;;;;;5.25;3.72;;;11.10;99.90;;;;;;5015832;28;20029;-88
2021/10/17 06:57:01;;;;;;;5.45;3.58;;;11.10;99.90;;;;;;5017191;28;20088;-89
2021/10/17 06:59:27;;;;;;;5.13;3.88;;;11.10;99.90;;;;;;5016002;28;20032;-90
2021/10/17 07:01:52;;;;;;;4.53;3.10;;;11.10;99.90;;;;;;5031948;28;20037;-91
2021/10/17 07:04:18;;;;;;;7.20;4.35;;;11.10;99.90;;;;;;5015098;28;20025;-90
2021/10/17 07:06:44;;;;;;;6.32;4.40;;;11.10;99.90;;;;;;5031141;28;20128;-90
2021/10/17 07:09:10;;;;;;;6.28;4.43;;;11.10;99.90;;;;;;5014481;28;20018;-90
2021/10/17 07:11:36;;;;;;;6.13;4.70;;;11.10;99.90;;;;;;5015074;28;20026;-90
2021/10/17 07:14:02;;;;;;;6.63;5.20;;;11.10;99.90;;;;;;5014758;28;20387;-87
2021/10/17 07:16:27;;;;;;;6.78;5.03;;;11.10;99.90;;;;;;5030978;28;20061;-88
2021/10/17 07:18:53;;;;;;;5.97;4.53;;;11.10;99.90;;;;;;5014907;28;20026;-88
2021/10/17 07:21:19;;;;;;;7.03;4.45;;;11.10;99.90;;;;;;5014973;28;20116;-88
2021/10/17 07:23:45;;;;;;;6.03;4.57;;;11.10;99.90;;;;;;5015280;28;20026;-88
2021/10/17 07:26:10;;;;;;;8.45;5.72;;;11.10;99.90;;;;;;5015043;28;20084;-89
2021/10/17 07:28:36;;;;;;;7.18;5.10;;;11.10;99.90;;;;;;5015348;28;20017;-88
2021/10/17 07:31:02;;;;;;;10.55;5.40;;;11.10;99.90;;;;;;5015059;28;20029;-89
2021/10/17 07:33:27;;;;;;;10.02;5.68;;;11.10;99.90;;;;;;5037832;28;20037;-89
2021/10/17 07:35:53;;;;;;;6.65;4.72;;;11.20;99.90;;;;;;5017245;28;20022;-89
2021/10/17 07:38:19;;;;;;;5.82;4.40;;;11.20;99.90;;;;;;5016226;28;20029;-89
2021/10/17 07:40:44;;;;;;;7.65;4.53;;;11.20;99.90;;;;;;5015765;28;20490;-89
2021/10/17 07:43:10;;;;;;;6.60;4.00;;;11.20;99.90;;;;;;5014396;28;20069;-89
2021/10/17 07:45:35;;;;;;;4.93;3.95;;;11.20;99.90;;;;;;5014187;28;20276;-89
2021/10/17 07:48:01;;;;;;;7.45;4.35;;;11.20;99.90;;;;;;5030259;28;20431;-89
2021/10/17 07:50:28;;;;;;;4.78;3.92;;;11.30;99.90;;;;;;5014327;28;20048;-88
2021/10/17 07:52:54;;;;;;;6.03;4.72;;;11.30;99.90;;;;;;5015155;28;20501;-89
2021/10/17 07:55:20;;;;;;;4.10;3.58;;;11.30;99.90;;;;;;5013909;28;20113;-89
2021/10/17 07:57:49;;;;;;;4.85;3.70;;;11.30;99.90;;;;;;5013573;28;20033;-89
2021/10/17 08:00:20;;;;;;;5.55;4.40;;;11.30;99.90;;;;;;5013879;28;20049;-89
2021/10/17 08:02:46;;;;;;;6.05;4.20;;;11.30;99.90;;;;;;5013752;28;20030;-88
2021/10/17 08:05:12;;;;;;;5.40;3.65;;;11.30;99.90;;;;;;5030092;28;20028;-90
2021/10/17 08:07:38;;;;;;;4.95;3.53;;;11.30;99.90;;;;;;5014734;28;20065;-88
2021/10/17 08:10:04;;;;;;;5.47;3.92;;;11.40;99.90;;;;;;5013630;28;20438;-88
2021/10/17 08:12:30;;;;;;;6.15;3.83;;;11.40;99.90;;;;;;5013854;28;20072;-88
2021/10/17 08:14:56;;;;;;;5.45;3.78;;;11.40;99.90;;;;;;5014863;28;20092;-90
2021/10/17 08:17:21;;;;;;;5.28;4.05;;;11.40;99.90;;;;;;5014551;28;20120;-88
2021/10/17 08:19:47;;;;;;;6.55;5.10;;;11.40;99.90;;;;;;5030439;28;20022;-88
2021/10/17 08:22:12;;;;;;;4.53;3.78;;;11.40;99.90;;;;;;5014093;28;20495;-89
2021/10/17 08:24:38;;;;;;;6.50;4.13;;;11.40;99.90;;;;;;5013946;28;20475;-88
2021/10/17 08:27:04;;;;;;;5.25;3.53;;;11.40;99.90;;;;;;5013746;28;20155;-89
2021/10/17 08:29:34;;;;;;;5.20;3.20;;;11.50;99.90;;;;;;5014309;28;20076;-88
2021/10/17 08:32:04;;;;;;;4.32;3.60;;;11.50;99.90;;;;;;5014029;28;20116;-90
2021/10/17 08:34:29;;;;;;;4.65;3.25;;;11.50;99.90;;;;;;5029798;28;20118;-91
2021/10/17 08:36:55;;;;;;;6.20;3.63;;;11.60;99.90;;;;;;5013386;28;20034;-89
2021/10/17 08:39:21;;;;;;;3.97;3.20;;;11.60;99.90;;;;;;5013455;28;20230;-89
2021/10/17 08:41:46;;;;;;;3.83;3.17;;;11.60;99.90;;;;;;5013099;28;20054;-90
2021/10/17 08:44:13;;;;;;;3.95;3.13;;;11.60;99.90;;;;;;5014287;28;20462;-89
2021/10/17 08:46:40;;;;;;;4.40;3.30;;;11.60;99.90;;;;;;5014805;28;20022;-90
2021/10/17 08:49:08;;;;;;;4.13;3.22;;;11.60;99.90;;;;;;5014487;28;20053;-89
2021/10/17 08:51:34;;;;;;;4.03;3.25;;;11.70;99.90;;;;;;5029603;28;20030;-89
2021/10/17 08:53:59;;;;;;;4.28;2.92;;;11.70;99.90;;;;;;5014584;28;20037;-91
2021/10/17 08:56:25;;;;;;;4.97;3.40;;;11.70;99.90;;;;;;5013201;28;20124;-91
2021/10/17 08:58:51;;;;;;;3.75;3.35;;;11.70;99.90;;;;;;5014465;28;20040;-90
2021/10/17 09:01:17;;;;;;;3.55;3.10;;;11.70;99.90;;;;;;5030074;28;20498;-90
2021/10/17 09:03:52;;;;;;;3.33;2.80;;;11.70;99.90;;;;;;5013520;28;20030;-90
2021/10/17 09:06:27;;;;;;;3.63;2.70;;;11.70;99.90;;;;;;5014865;28;20101;-89
2021/10/17 09:09:20;;;;;;;4.55;3.42;;;11.80;99.90;;;;;;5013735;28;20137;-90
2021/10/17 09:11:51;;;;;;;4.88;3.58;;;11.80;99.90;;;;;;5013234;28;20026;-89
2021/10/17 09:14:18;;;;;;;4.47;3.40;;;11.80;99.90;;;;;;5013170;28;20041;-89
2021/10/17 09:16:46;;;;;;;3.15;2.63;;;11.80;99.90;;;;;;5013382;28;20060;-89
2021/10/17 09:19:29;;;;;;;7.10;3.08;;;11.80;99.90;;;;;;5013511;28;20033;-89
2021/10/17 09:21:57;;;;;;;3.22;2.88;;;11.80;99.90;;;;;;5014184;28;20041;-89
2021/10/17 09:24:35;;;;;;;3.10;2.55;;;11.90;99.90;;;;;;5021192;28;20084;-89
2021/10/17 09:27:19;;;;;;;3.92;3.05;;;11.90;99.90;;;;;;5016594;28;20525;-90
2021/10/17 09:29:52;;;;;;;2.60;2.40;;;11.90;99.90;;;;;;5013074;28;20041;-89
2021/10/17 09:32:22;;;;;;;2.63;2.30;;;11.90;99.90;;;;;;5016793;28;20479;-89
2021/10/17 09:34:58;;;;;;;2.58;1.90;;;11.90;99.90;;;;;;5016778;28;20476;-89
2021/10/17 09:37:38;;;;;;;4.13;3.55;;;11.90;99.90;;;;;;5033160;28;20072;-88
2021/10/17 09:40:24;;;;;;;3.22;2.85;;;11.90;99.90;;;;;;5016983;28;20026;-90
2021/10/17 09:43:12;;;;;;;3.58;2.67;;;11.90;99.90;;;;;;5016316;28;20040;-90
2021/10/17 09:45:39;;;;;;;2.95;2.45;;;11.90;99.90;;;;;;5016630;28;20034;-89
2021/10/17 09:48:06;;;;;;;3.13;2.20;;;12.00;99.90;;;;;;5016568;28;20036;-89
2021/10/17 09:50:32;;;;;;;2.97;2.30;;;11.90;99.90;;;;;;5016766;28;20076;-89
2021/10/17 09:52:58;;;;;;;2.92;1.98;;;12.00;99.90;;;;;;5016868;28;20022;-89
2021/10/17 09:55:24;;;;;;;3.40;2.60;;;12.00;99.90;;;;;;5032772;28;20117;-87
2021/10/17 09:57:51;;;;;;;2.85;2.05;;;12.10;99.90;;;;;;5016206;28;20038;-89
2021/10/17 10:00:18;;;;;;;2.70;2.08;;;12.10;99.90;;;;;;5016218;28;20475;-89
2021/10/17 10:02:48;;;;;;;2.33;1.77;;;12.10;99.90;;;;;;5015989;28;20030;-89
2021/10/17 10:05:22;;;;;;;1.73;1.60;;;12.10;99.90;;;;;;5016039;28;20117;-90
2021/10/17 10:07:50;;;;;;;1.70;1.60;;;12.10;99.90;;;;;;5015982;28;20033;-88
2021/10/17 10:10:18;;;;;;;1.90;1.70;;;12.20;99.90;;;;;;5016018;28;20037;-88
2021/10/17 10:12:46;;;;;;;3.33;1.80;;;12.20;99.90;;;;;;5015707;28;20021;-88
2021/10/17 10:15:13;;;;;;;2.95;1.70;;;12.20;99.90;;;;;;5031998;28;20060;-89
2021/10/17 10:17:42;;;;;;;3.30;2.42;;;12.20;99.90;;;;;;5015821;28;20429;-89
2021/10/17 10:20:14;;;;;;;5.88;2.30;;;12.20;99.90;;;;;;5015807;28;20046;-89
2021/10/17 10:22:43;;;;;;;4.57;3.00;;;12.20;99.90;;;;;;5015888;28;20026;-88
2021/10/17 10:25:10;;;;;;;5.53;4.38;;;12.20;99.90;;;;;;5015757;28;20145;-89
2021/10/17 10:27:37;;;;;;;7.35;4.75;;;12.20;99.90;;;;;;5015574;28;20026;-89
2021/10/17 10:30:29;;;;;;;5.72;4.00;;;12.30;99.90;;;;;;5016401;28;20018;-89
2021/10/17 10:33:15;;;;;;;5.63;4.43;;;12.30;99.90;;;;;;5032421;28;20050;-90
2021/10/17 10:36:03;;;;;;;7.05;4.63;;;12.30;99.90;;;;;;5015609;28;20061;-89
2021/10/17 10:38:48;;;;;;;7.47;4.30;;;12.30;99.90;;;;;;5016391;28;20095;-89
2021/10/17 10:41:15;;;;;;;8.85;6.15;;;12.30;99.90;;;;;;5015507;28;20176;-89
2021/10/17 10:43:40;;;;;;;10.73;6.65;;;12.30;99.90;;;;;;5014268;28;20080;-89
2021/10/17 10:46:06;;;;;;;4.00;3.10;;;12.30;99.90;;;;;;5015719;28;20026;-89
2021/10/17 10:48:45;;;;;;;11.13;6.53;;;12.40;99.90;;;;;;5015498;28;20022;-90
2021/10/17 10:51:11;;;;;;;10.63;7.78;;;12.40;99.90;;;;;;5032068;28;20029;-89
2021/10/17 10:53:51;;;;;;;11.15;7.55;;;12.40;99.90;;;;;;5015623;28;20028;-89
2021/10/17 10:56:46;;;;;;;11.27;7.22;;;12.40;99.90;;;;;;5015020;28;20443;-88
2021/10/17 10:59:17;;;;;;;12.57;7.72;;;12.40;99.90;;;;;;5015024;28;20042;-89
2021/10/17 11:02:07;;;;;;;12.30;8.73;;;12.40;99.90;;;;;;5015031;28;20510;-89
2021/10/17 11:04:42;;;;;;;11.87;8.70;;;12.40;99.90;;;;;;5016339;28;20026;-90
2021/10/17 11:07:20;;;;;;;12.35;8.48;;;12.40;99.90;;;;;;5015118;28;20793;-89
2021/10/17 11:09:47;;;;;;;11.40;6.75;;;12.40;99.90;;;;;;5015198;28;20037;-89
2021/10/17 11:12:40;;;;;;;9.20;6.88;;;12.40;99.90;;;;;;5015220;28;20157;-89
2021/10/17 11:15:14;;;;;;;17.50;9.25;;;12.40;99.90;;;;;;5022152;28;20058;-89
2021/10/17 11:17:58;;;;;;;13.23;8.05;;;12.50;99.90;;;;;;5016968;28;20038;-89
2021/10/17 11:20:27;;;;;;;13.25;8.48;;;12.50;99.90;;;;;;5014651;28;20028;-89
2021/10/17 11:22:57;;;;;;;18.15;9.45;;;12.50;99.90;;;;;;5014594;28;20022;-88
2021/10/17 11:25:25;;;;;;;10.32;7.15;;;12.60;99.90;;;;;;5031046;28;20117;-89
2021/10/17 11:27:51;;;;;;;12.52;8.23;;;12.60;99.90;;;;;;5015161;28;20030;-89
2021/10/17 11:30:33;;;;;;;14.02;9.10;;;12.60;99.90;;;;;;5015274;28;20022;-88
2021/10/17 11:33:02;;;;;;;16.20;9.35;;;12.60;99.90;;;;;;5015871;28;20140;-88
2021/10/17 11:35:33;;;;;;;14.00;8.35;;;12.70;99.90;;;;;;5014640;28;20021;-89
2021/10/17 11:38:01;;;;;;;12.80;8.88;;;12.70;99.90;;;;;;5014562;28;20065;-89
2021/10/17 11:40:28;;;;;;;13.95;8.05;;;12.70;99.90;;;;;;5014876;28;20124;-89
2021/10/17 11:42:59;;;;;;;14.23;9.18;;;12.70;99.90;;;;;;5030727;28;20034;-88
2021/10/17 11:45:36;;;;;;;12.15;7.97;;;12.70;99.90;;;;;;5014276;28;20116;-88
2021/10/17 11:48:04;;;;;;;13.25;8.90;;;12.70;99.90;;;;;;5014506;28;20100;-88
2021/10/17 11:50:39;;;;;;;14.15;8.02;;;12.70;99.90;;;;;;5014387;28;20030;-88
2021/10/17 11:53:10;;;;;;;16.75;9.32;;;12.70;99.90;;;;;;5013314;28;20030;-88
2021/10/17 11:55:48;;;;;;;12.77;8.25;;;12.80;99.90;;;;;;5015134;28;20029;-89
2021/10/17 11:58:17;;;;;;;8.60;5.22;;;12.80;99.90;;;;;;5030982;28;20068;-87
2021/10/17 12:00:45;;;;;;;9.43;7.38;;;12.80;99.90;;;;;;5014101;28;20024;-89
2021/10/17 12:03:12;;;;;;;11.00;6.95;;;12.90;99.90;;;;;;5013809;28;20022;-89
2021/10/17 12:05:45;;;;;;;16.08;9.65;;;12.90;99.90;;;;;;5015098;28;20214;-89
2021/10/17 12:08:34;;;;;;;12.00;7.53;;;12.90;99.90;;;;;;5013851;28;20030;-88
2021/10/17 12:11:03;;;;;;;13.20;8.90;;;13.00;99.90;;;;;;5013829;28;20030;-89
2021/10/17 12:13:38;;;;;;;13.52;10.70;;;13.00;99.90;;;;;;5013741;28;20056;-89
2021/10/17 12:16:07;;;;;;;14.63;9.13;;;13.10;99.90;;;;;;5014061;28;20053;-89
2021/10/17 12:18:34;;;;;;;13.30;8.85;;;13.10;99.90;;;;;;5032557;28;20037;-89
2021/10/17 12:21:01;;;;;;;15.65;7.60;;;13.20;99.90;;;;;;5014103;28;20054;-89
2021/10/17 12:23:29;;;;;;;11.57;8.35;;;13.20;99.90;;;;;;5013206;28;20029;-89
2021/10/17 12:25:55;;;;;;;14.20;8.48;;;13.30;99.90;;;;;;5013476;28;20025;-89
2021/10/17 12:28:21;;;;;;;13.60;8.32;;;13.40;99.90;;;;;;5013424;28;20037;-88
2021/10/17 12:30:52;;;;;;;12.82;8.60;;;13.40;99.90;;;;;;5013378;28;20029;-89
2021/10/17 12:33:33;;;;;;;11.88;7.85;;;13.40;99.90;;;;;;5013518;28;20018;-88
2021/10/17 12:36:03;;;;;;;;;;;13.50;99.90;;;;;;5030744;28;20531;-88
2021/10/17 12:38:36;;;;;;;11.25;7.40;;;13.50;99.90;;;;;;5030401;28;19939;-88